Dawn Merchant — MYIL6 — position and weather

sailwx.info

Track history (hours):
 
Tides and Currents Weather Stations Pressure Air Temp Water Temp Dewpoint Dewpoint Depression Visibility Wind Speed Wind Dir Waves Ship Positions

Dawn Merchant

Operator: Norfolk Line

Last reported at 2018-Sep-24 22:00 UTC. Time now 2018-Sep-24 22:02 UTC.
Position S 41°13' E 174°20'.

Length 180 m; draft 5.4 m.

Type: Passenger vessel. MMSI: 232197000.

Date/timePositionNaut miles runAvg speedWind from/ knotsBaromVisibWave heightAir tempDewpointWater temp
2018-Sep-24 22:00S 41°13' E 174°20'714.6
2018-Sep-24 21:30S 41°15' E 174°10'612.9
2018-Sep-24 21:03S 41°15' E 174°03'114.3
2018-Sep-24 21:00S 41°15' E 174°02'2 4.1
2018-Sep-24 20:30S 41°17' E 174°00'0 0.0
2018-Sep-24 20:03S 41°17' E 174°00'0 0.0
2018-Sep-24 20:00S 41°17' E 174°00'0 0.0
2018-Sep-24 19:31S 41°17' E 174°00'0 0.0
2018-Sep-24 19:03S 41°17' E 174°00'0 0.0
2018-Sep-24 19:00S 41°17' E 174°00'1 2.7
2018-Sep-24 18:30S 41°16' E 174°01'614.1
2018-Sep-24 18:04S 41°14' E 174°09'114.1
2018-Sep-24 18:00S 41°14' E 174°09'714.8
2018-Sep-24 17:30S 41°13' E 174°19'613.2
2018-Sep-24 17:03S 41°16' E 174°26'111.7
2018-Sep-24 17:00S 41°16' E 174°26'612.5
2018-Sep-24 16:31S 41°20' E 174°33'613.2
2018-Sep-24 16:04S 41°22' E 174°40'116.2
2018-Sep-24 16:00S 41°23' E 174°41'911.0
2018-Sep-24 15:13S 41°17' E 174°50'210.2
2018-Sep-24 15:03S 41°16' E 174°47'0 2.3
2018-Sep-24 14:58S 41°16' E 174°47'0 0.0
2018-Sep-24 14:21S 41°16' E 174°47'0 0.0
2018-Sep-24 13:54S 41°16' E 174°47'0 0.0
2018-Sep-24 13:23S 41°16' E 174°47'0 0.3
2018-Sep-24 13:02S 41°16' E 174°47'0 3.4
2018-Sep-24 13:00S 41°16' E 174°47'611.2
2018-Sep-24 12:28S 41°22' E 174°50'615.9
2018-Sep-24 12:04S 41°23' E 174°42'119.6
2018-Sep-24 12:01S 41°23' E 174°41'1019.7
2018-Sep-24 11:31S 41°19' E 174°29'817.9
2018-Sep-24 11:04S 41°14' E 174°20'118.5
2018-Sep-24 11:01S 41°13' E 174°20'815.4
2018-Sep-24 10:31S 41°15' E 174°10'612.5
2018-Sep-24 10:04S 41°15' E 174°02'114.2
2018-Sep-24 10:01S 41°16' E 174°02'2 3.1
2018-Sep-24 09:28S 41°17' E 174°00'0 0.0
2018-Sep-24 09:03S 41°17' E 174°00'0 0.0
2018-Sep-24 09:00S 41°17' E 174°00'0 0.0
2018-Sep-24 08:30S 41°17' E 174°00'0 0.0
2018-Sep-24 08:03S 41°17' E 174°00'0 0.0
2018-Sep-24 08:00S 41°17' E 174°00'0 0.0
2018-Sep-24 07:30S 41°17' E 174°00'0 0.3
2018-Sep-24 07:03S 41°17' E 174°01'0 1.7
2018-Sep-24 07:00S 41°17' E 174°01'0 0.4
2018-Sep-24 06:29S 41°17' E 174°00'0 0.0
2018-Sep-24 06:01S 41°17' E 174°00'0 0.0
2018-Sep-24 05:58S 41°17' E 174°00'0 0.0
2018-Sep-24 05:28S 41°17' E 174°00'0 0.0
2018-Sep-24 05:01S 41°17' E 174°00'0 0.0
2018-Sep-24 04:58S 41°17' E 174°00'0 0.0
2018-Sep-24 04:28S 41°17' E 174°00'0 0.0
2018-Sep-24 04:03S 41°17' E 174°00'0 0.0
2018-Sep-24 04:00S 41°17' E 174°00'0 0.0
2018-Sep-24 03:30S 41°17' E 174°00'0 0.0
2018-Sep-24 03:03S 41°17' E 174°00'0 0.0
2018-Sep-24 03:00S 41°17' E 174°00'0 0.0
2018-Sep-24 02:29S 41°17' E 174°00'0 0.0
2018-Sep-24 02:02S 41°17' E 174°00'0 0.0
2018-Sep-24 01:59S 41°17' E 174°00'0 0.0
2018-Sep-24 01:29S 41°17' E 174°00'0 0.0
2018-Sep-24 01:02S 41°17' E 174°00'0 0.0
2018-Sep-24 00:59S 41°17' E 174°00'0 0.0
2018-Sep-24 00:28S 41°17' E 174°00'0 0.0
2018-Sep-24 00:01S 41°17' E 174°00'0 0.0
2018-Sep-23 23:58S 41°17' E 174°00'0 0.0
2018-Sep-23 23:28S 41°17' E 174°00'0 0.0
2018-Sep-23 23:03S 41°17' E 174°00'0 0.0
2018-Sep-23 23:00S 41°17' E 174°00'0 0.0
2018-Sep-23 22:30S 41°17' E 174°00'0 0.0
2018-Sep-23 22:03S 41°17' E 174°00'0 0.0
2018-Sep-23 22:00S 41°17' E 174°00'0 0.0
2018-Sep-23 21:29S 41°17' E 174°00'0 0.0
2018-Sep-23 21:02S 41°17' E 174°00'0 0.0
2018-Sep-23 20:59S 41°17' E 174°00'0 0.0
2018-Sep-23 20:29S 41°17' E 174°00'0 0.0
2018-Sep-23 20:02S 41°17' E 174°00'0 0.0
2018-Sep-23 19:59S 41°17' E 174°00'0 0.0
2018-Sep-23 19:28S 41°17' E 174°00'0 0.0
2018-Sep-23 19:01S 41°17' E 174°00'0 0.0
2018-Sep-23 18:58S 41°17' E 174°00'0 0.0
2018-Sep-23 18:28S 41°17' E 174°00'0 0.0
2018-Sep-23 18:03S 41°17' E 174°00'0 0.0
2018-Sep-23 18:00S 41°17' E 174°00'0 0.0
2018-Sep-23 17:30S 41°17' E 174°00'0 0.0
2018-Sep-23 17:03S 41°17' E 174°00'0 0.0
2018-Sep-23 17:00S 41°17' E 174°00'0 0.0
2018-Sep-23 16:29S 41°17' E 174°00'0 0.0
2018-Sep-23 16:02S 41°17' E 174°00'0 0.0
2018-Sep-23 15:59S 41°17' E 174°00'0 0.0
2018-Sep-23 15:29S 41°17' E 174°00'0 0.0
2018-Sep-23 15:02S 41°17' E 174°00'0 0.1
2018-Sep-23 14:59S 41°17' E 174°00'0 0.0
2018-Sep-23 14:28S 41°17' E 174°00'0 0.0
2018-Sep-23 13:28S 41°17' E 174°00'0 0.0
2018-Sep-23 13:03S 41°17' E 174°00'0 0.0
2018-Sep-23 13:00S 41°17' E 174°00'0 0.0
2018-Sep-23 12:30S 41°17' E 174°00'0 0.0
2018-Sep-23 12:03S 41°17' E 174°00'0 0.0
2018-Sep-23 12:00S 41°17' E 174°00'0 0.0
2018-Sep-23 11:30S 41°17' E 174°00'0 0.0
2018-Sep-23 11:02S 41°17' E 174°00'0 0.0
2018-Sep-23 10:59S 41°17' E 174°00'0 0.0
2018-Sep-23 10:29S 41°17' E 174°00'0 0.0
2018-Sep-23 10:02S 41°17' E 174°00'0 0.0
2018-Sep-23 09:59S 41°17' E 174°00'0 0.0
2018-Sep-23 09:28S 41°17' E 174°00'0 0.0
2018-Sep-23 09:01S 41°17' E 174°00'0 0.0
2018-Sep-23 08:58S 41°17' E 174°00'0 0.0
2018-Sep-23 08:28S 41°17' E 174°00'0 0.0
2018-Sep-23 08:00S 41°17' E 174°00'0 0.0
2018-Sep-23 07:30S 41°17' E 174°00'0 0.0
2018-Sep-23 07:03S 41°17' E 174°00'0 0.0
2018-Sep-23 07:00S 41°17' E 174°00'0 0.0
2018-Sep-23 06:30S 41°17' E 174°00'0 0.0
2018-Sep-23 06:02S 41°17' E 174°00'0 0.0
2018-Sep-23 05:59S 41°17' E 174°00'0 0.0
2018-Sep-23 05:29S 41°17' E 174°00'0 0.0
2018-Sep-23 05:02S 41°17' E 174°00'0 0.0
2018-Sep-23 04:59S 41°17' E 174°00'0 0.0
2018-Sep-23 04:28S 41°17' E 174°00'0 0.0
2018-Sep-23 04:01S 41°17' E 174°00'0 0.0
2018-Sep-23 03:58S 41°17' E 174°00'0 0.0
2018-Sep-23 03:28S 41°17' E 174°00'0 0.0
2018-Sep-23 03:01S 41°17' E 174°00'0 0.0
2018-Sep-23 02:58S 41°17' E 174°00'0 0.0
2018-Sep-23 02:30S 41°17' E 174°00'0 0.0
2018-Sep-23 02:03S 41°17' E 174°00'0 0.1
2018-Sep-23 02:00S 41°17' E 174°00'0 0.0
2018-Sep-23 01:30S 41°17' E 174°00'0 0.0
2018-Sep-23 01:02S 41°17' E 174°00'0 0.0
2018-Sep-23 00:59S 41°17' E 174°00'0 0.0
2018-Sep-23 00:29S 41°17' E 174°00'0 0.0
2018-Sep-23 00:02S 41°17' E 174°00'0 0.0
2018-Sep-22 23:59S 41°17' E 174°00'0 0.0
2018-Sep-22 23:28S 41°17' E 174°00'0 0.0
2018-Sep-22 23:01S 41°17' E 174°00'0 0.0
2018-Sep-22 22:58S 41°17' E 174°00'0 0.0
2018-Sep-22 22:28S 41°17' E 174°00'0 0.0
2018-Sep-22 22:01S 41°17' E 174°00'0 0.0
2018-Sep-22 21:58S 41°17' E 174°00'0 0.0
2018-Sep-22 21:30S 41°17' E 174°00'0 0.0
2018-Sep-22 21:03S 41°17' E 174°00'0 0.0
2018-Sep-22 21:00S 41°17' E 174°00'0 0.0
2018-Sep-22 20:30S 41°17' E 174°00'0 0.0
2018-Sep-22 20:02S 41°17' E 174°00'0 0.0
2018-Sep-22 19:59S 41°17' E 174°00'0 0.0
2018-Sep-22 19:29S 41°17' E 174°00'0 0.0
2018-Sep-22 19:02S 41°17' E 174°00'0 0.0
2018-Sep-22 18:59S 41°17' E 174°00'0 0.0
2018-Sep-22 18:29S 41°17' E 174°00'0 0.0
2018-Sep-22 18:01S 41°17' E 174°00'0 0.1
2018-Sep-22 17:58S 41°17' E 174°00'0 0.0
2018-Sep-22 17:28S 41°17' E 174°00'0 0.0
2018-Sep-22 17:01S 41°17' E 174°00'0 0.0
2018-Sep-22 16:58S 41°17' E 174°00'0 0.0
2018-Sep-22 16:30S 41°17' E 174°00'0 0.0
2018-Sep-22 16:03S 41°17' E 174°00'0 0.0
2018-Sep-22 16:00S 41°17' E 174°00'0 0.0
2018-Sep-22 15:30S 41°17' E 174°00'0 0.0
2018-Sep-22 15:02S 41°17' E 174°00'0 0.0
2018-Sep-22 14:59S 41°17' E 174°00'0 0.0
2018-Sep-22 14:02S 41°17' E 174°00'0 0.0
2018-Sep-22 13:59S 41°17' E 174°00'0 0.0
2018-Sep-22 13:29S 41°17' E 174°00'0 0.0
2018-Sep-22 13:01S 41°17' E 174°00'0 0.0
2018-Sep-22 12:58S 41°17' E 174°00'0 0.0
2018-Sep-22 12:28S 41°17' E 174°00'0 0.0
2018-Sep-22 12:01S 41°17' E 174°00'0 0.0
2018-Sep-22 11:58S 41°17' E 174°00'0 0.0
2018-Sep-22 11:30S 41°17' E 174°00'0 0.0
2018-Sep-22 11:03S 41°17' E 174°00'0 0.1
2018-Sep-22 11:00S 41°17' E 174°00'0 0.0
2018-Sep-22 10:30S 41°17' E 174°00'0 0.0
2018-Sep-22 10:03S 41°17' E 174°00'0 0.0
2018-Sep-22 10:00S 41°17' E 174°00'0 0.0
2018-Sep-22 09:29S 41°17' E 174°00'0 0.0
2018-Sep-22 09:03S 41°17' E 174°00'0 1.1
2018-Sep-22 09:00S 41°17' E 174°00'0 0.3
2018-Sep-22 08:29S 41°17' E 174°00'0 0.0
2018-Sep-22 08:03S 41°17' E 174°00'0 0.5
2018-Sep-22 08:00S 41°17' E 174°00'1 1.7
2018-Sep-22 07:30S 41°16' E 174°01'612.9
2018-Sep-22 07:04S 41°14' E 174°08'114.8
2018-Sep-22 07:01S 41°13' E 174°09'611.5
2018-Sep-22 06:30S 41°14' E 174°16'816.7
2018-Sep-22 06:03S 41°16' E 174°26'119.9
2018-Sep-22 06:00S 41°17' E 174°27'1121.8
2018-Sep-22 05:31S 41°22' E 174°39'917.3
2018-Sep-22 04:58S 41°19' E 174°51'4 9.3
2018-Sep-22 04:30S 41°16' E 174°47'0 0.0
2018-Sep-22 04:02S 41°16' E 174°47'0 0.0
2018-Sep-22 04:00S 41°16' E 174°47'0 0.0
2018-Sep-22 03:30S 41°16' E 174°47'0 0.0
2018-Sep-22 03:03S 41°16' E 174°47'0 0.0
2018-Sep-22 02:59S 41°16' E 174°47'0 0.0
2018-Sep-22 02:30S 41°16' E 174°47'0 0.0
2018-Sep-22 02:02S 41°16' E 174°47'0 0.0
2018-Sep-22 02:00S 41°16' E 174°47'0 0.0
2018-Sep-22 01:30S 41°16' E 174°47'0 0.0
2018-Sep-22 01:03S 41°16' E 174°47'0 0.0
2018-Sep-22 00:59S 41°16' E 174°47'0 0.0
2018-Sep-22 00:26S 41°16' E 174°47'1 1.9
2018-Sep-22 00:02S 41°16' E 174°48'112.6
2018-Sep-21 23:59S 41°16' E 174°49'613.4
2018-Sep-21 23:30S 41°23' E 174°50'715.6
2018-Sep-21 23:03S 41°23' E 174°41'117.5
2018-Sep-21 23:00S 41°23' E 174°40'816.8
2018-Sep-21 22:30S 41°19' E 174°30'715.9
2018-Sep-21 22:03S 41°15' E 174°22'116.2
2018-Sep-21 22:00S 41°14' E 174°21'713.8
2018-Sep-21 21:30S 41°14' E 174°12'613.2
2018-Sep-21 21:03S 41°15' E 174°04'115.0
2018-Sep-21 21:00S 41°15' E 174°03'3 6.0
2018-Sep-21 20:30S 41°17' E 174°00'0 0.0
2018-Sep-21 20:03S 41°17' E 174°00'0 0.0
2018-Sep-21 20:00S 41°17' E 174°00'0 0.0
2018-Sep-21 19:30S 41°17' E 174°00'0 0.0
2018-Sep-21 19:03S 41°17' E 174°00'0 0.0
2018-Sep-21 19:00S 41°17' E 174°00'2 4.9
2018-Sep-21 18:30S 41°15' E 174°02'612.4
2018-Sep-21 18:03S 41°15' E 174°09'114.4
2018-Sep-21 18:00S 41°15' E 174°10'714.6
2018-Sep-21 17:30S 41°13' E 174°20'816.9
2018-Sep-21 17:03S 41°17' E 174°28'118.0
2018-Sep-21 17:00S 41°18' E 174°29'918.6
2018-Sep-21 16:30S 41°23' E 174°40'914.9
2018-Sep-21 15:55S 41°19' E 174°51'410.2
2018-Sep-21 15:30S 41°16' E 174°47'0 0.0
2018-Sep-21 13:45S 41°16' E 174°47'0 0.6
2018-Sep-21 13:27S 41°16' E 174°47'4 9.1
2018-Sep-21 12:59S 41°19' E 174°51'714.3
2018-Sep-21 12:30S 41°23' E 174°44'817.7
2018-Sep-21 12:03S 41°21' E 174°34'118.3
2018-Sep-21 12:01S 41°21' E 174°33'815.8
2018-Sep-21 11:31S 41°16' E 174°24'613.5
2018-Sep-21 11:03S 41°13' E 174°18'116.4
2018-Sep-21 11:01S 41°14' E 174°17'713.1
2018-Sep-21 10:30S 41°14' E 174°08'613.7
2018-Sep-21 10:03S 41°17' E 174°01'0 8.6
2018-Sep-21 10:00S 41°17' E 174°00'0 0.0
2018-Sep-21 09:30S 41°17' E 174°00'0 0.0
2018-Sep-21 09:03S 41°17' E 174°00'0 0.0
2018-Sep-21 09:00S 41°17' E 174°00'0 0.0
2018-Sep-21 08:30S 41°17' E 174°00'0 0.7
2018-Sep-21 08:03S 41°17' E 174°01'0 8.5
2018-Sep-21 08:00S 41°16' E 174°01'713.6
2018-Sep-21 07:30S 41°14' E 174°09'511.7
2018-Sep-21 07:04S 41°14' E 174°16'115.2
2018-Sep-21 07:01S 41°13' E 174°17'815.2
2018-Sep-21 06:30S 41°16' E 174°26'818.1
2018-Sep-21 06:04S 41°21' E 174°35'118.7
2018-Sep-21 06:00S 41°21' E 174°36'917.7
2018-Sep-21 05:30S 41°22' E 174°48'613.0
2018-Sep-21 05:03S 41°16' E 174°49'115.5
2018-Sep-21 05:00S 41°16' E 174°48'1 1.6
2018-Sep-21 04:24S 41°16' E 174°47'0 0.0
2018-Sep-21 04:00S 41°16' E 174°47'0 0.0
2018-Sep-21 03:30S 41°16' E 174°47'0 0.0
2018-Sep-21 03:03S 41°16' E 174°47'0 0.0
2018-Sep-21 02:58S 41°16' E 174°47'0 0.0
2018-Sep-21 02:30S 41°16' E 174°47'0 0.0
2018-Sep-21 02:02S 41°16' E 174°47'0 0.0
2018-Sep-21 02:00S 41°16' E 174°47'0 0.0
2018-Sep-21 01:30S 41°16' E 174°47'0 0.0
2018-Sep-21 01:03S 41°16' E 174°47'0 0.0
2018-Sep-21 00:58S 41°16' E 174°47'0 0.0
2018-Sep-21 00:30S 41°16' E 174°47'1 3.0
2018-Sep-21 00:03S 41°16' E 174°49'115.9
2018-Sep-20 23:59S 41°16' E 174°50'714.7
2018-Sep-20 23:30S 41°23' E 174°49'715.6
2018-Sep-20 23:04S 41°23' E 174°40'116.1
2018-Sep-20 23:00S 41°23' E 174°39'917.1
2018-Sep-20 22:31S 41°19' E 174°29'716.1
2018-Sep-20 22:04S 41°15' E 174°21'114.9
2018-Sep-20 22:00S 41°14' E 174°20'713.5
2018-Sep-20 21:31S 41°15' E 174°11'613.1
2018-Sep-20 21:03S 41°15' E 174°03'115.5
2018-Sep-20 21:00S 41°15' E 174°02'3 4.9
2018-Sep-20 20:28S 41°17' E 174°00'0 0.0
2018-Sep-20 20:01S 41°17' E 174°00'0 0.0
2018-Sep-20 19:58S 41°17' E 174°00'0 0.0
2018-Sep-20 19:28S 41°17' E 174°00'0 0.0
2018-Sep-20 19:03S 41°17' E 174°00'0 0.0
2018-Sep-20 19:00S 41°17' E 174°00'2 4.5
2018-Sep-20 18:30S 41°15' E 174°02'612.5
2018-Sep-20 18:03S 41°14' E 174°09'112.2
2018-Sep-20 18:01S 41°15' E 174°10'714.4
2018-Sep-20 17:30S 41°13' E 174°19'715.0
2018-Sep-20 17:04S 41°17' E 174°27'114.9
2018-Sep-20 17:01S 41°17' E 174°28'714.9
2018-Sep-20 16:30S 41°21' E 174°36'716.0
2018-Sep-20 16:03S 41°23' E 174°45'116.2
2018-Sep-20 16:01S 41°22' E 174°46'612.3
2018-Sep-20 15:29S 41°17' E 174°50'2 4.6
2018-Sep-20 15:03S 41°16' E 174°47'0 0.0
2018-Sep-20 14:53S 41°16' E 174°47'0 0.0
2018-Sep-20 13:58S 41°16' E 174°47'0 0.0
2018-Sep-20 13:30S 41°16' E 174°47'4 8.1
2018-Sep-20 13:03S 41°18' E 174°51'214.7
2018-Sep-20 12:57S 41°19' E 174°51'512.0
2018-Sep-20 12:30S 41°24' E 174°47'613.9
2018-Sep-20 12:04S 41°23' E 174°39'114.8
2018-Sep-20 12:01S 41°23' E 174°38'815.0
2018-Sep-20 11:30S 41°19' E 174°29'715.1
2018-Sep-20 11:03S 41°15' E 174°22'114.2
2018-Sep-20 11:00S 41°15' E 174°21'611.7
2018-Sep-20 10:30S 41°14' E 174°13'613.1
2018-Sep-20 10:04S 41°14' E 174°05'115.1
2018-Sep-20 10:01S 41°14' E 174°04'4 8.0
2018-Sep-20 09:30S 41°17' E 174°00'0 0.0
2018-Sep-20 09:03S 41°17' E 174°00'0 0.0
2018-Sep-20 09:00S 41°17' E 174°00'0 0.0
2018-Sep-20 08:30S 41°17' E 174°00'0 0.7
2018-Sep-20 08:03S 41°17' E 174°01'0 8.5
2018-Sep-20 08:00S 41°16' E 174°01'713.6
2018-Sep-20 07:30S 41°13' E 174°09'511.2
2018-Sep-20 07:03S 41°14' E 174°16'114.3
2018-Sep-20 07:00S 41°14' E 174°16'612.9
2018-Sep-20 06:30S 41°16' E 174°24'716.5
2018-Sep-20 06:03S 41°20' E 174°33'117.1
2018-Sep-20 06:00S 41°20' E 174°34'917.2
2018-Sep-20 05:30S 41°23' E 174°45'713.9
2018-Sep-20 05:00S 41°17' E 174°51'3 1.2
2018-Sep-20 02:43S 41°16' E 174°47'0 0.0
2018-Sep-20 02:12S 41°16' E 174°47'0 0.0
2018-Sep-20 02:00S 41°16' E 174°47'0 0.0
2018-Sep-20 01:30S 41°16' E 174°47'0 0.0
2018-Sep-20 01:00S 41°16' E 174°47'0 0.0
2018-Sep-20 00:29S 41°16' E 174°47'1 3.5
2018-Sep-20 00:03S 41°16' E 174°49'115.2
2018-Sep-20 00:00S 41°16' E 174°50'714.5
2018-Sep-19 23:30S 41°23' E 174°49'715.0
2018-Sep-19 23:03S 41°23' E 174°40'114.8
2018-Sep-19 23:00S 41°23' E 174°39'816.4
2018-Sep-19 22:30S 41°19' E 174°30'817.3
2018-Sep-19 22:03S 41°15' E 174°21'116.2
2018-Sep-19 22:00S 41°14' E 174°20'713.3
2018-Sep-19 21:30S 41°15' E 174°11'613.0
2018-Sep-19 21:03S 41°15' E 174°04'115.2
2018-Sep-19 21:00S 41°15' E 174°03'3 5.4
2018-Sep-19 20:30S 41°17' E 174°00'0 0.0
2018-Sep-19 20:03S 41°17' E 174°00'0 0.0
2018-Sep-19 20:00S 41°17' E 174°00'0 0.0
2018-Sep-19 19:30S 41°17' E 174°00'0 0.0
2018-Sep-19 19:03S 41°17' E 174°00'0 0.0
2018-Sep-19 19:00S 41°17' E 174°00'2 3.3
2018-Sep-19 18:31S 41°16' E 174°02'613.7
2018-Sep-19 18:04S 41°14' E 174°09'114.2
2018-Sep-19 18:01S 41°15' E 174°09'713.7
2018-Sep-19 17:31S 41°13' E 174°18'715.9
2018-Sep-19 17:04S 41°16' E 174°26'116.5
2018-Sep-19 17:00S 41°17' E 174°27'917.8
2018-Sep-19 16:31S 41°22' E 174°37'817.7
2018-Sep-19 16:03S 41°22' E 174°48'117.3
2018-Sep-19 16:01S 41°22' E 174°49'612.1
2018-Sep-19 15:30S 41°16' E 174°47'0 0.2
2018-Sep-19 14:40S 41°16' E 174°47'0 0.0
2018-Sep-19 14:22S 41°16' E 174°47'0 0.1
2018-Sep-19 13:24S 41°16' E 174°47'3 9.6
2018-Sep-19 13:03S 41°18' E 174°51'214.8
2018-Sep-19 12:57S 41°19' E 174°51'512.3
2018-Sep-19 12:30S 41°23' E 174°47'715.0
2018-Sep-19 12:03S 41°23' E 174°38'116.5
2018-Sep-19 12:00S 41°22' E 174°37'815.5
2018-Sep-19 11:30S 41°18' E 174°28'715.2
2018-Sep-19 11:03S 41°14' E 174°20'114.7
2018-Sep-19 11:00S 41°14' E 174°20'612.7
2018-Sep-19 10:30S 41°15' E 174°12'612.5
2018-Sep-19 10:03S 41°15' E 174°04'115.0
2018-Sep-19 10:00S 41°15' E 174°03'3 5.8
2018-Sep-19 09:28S 41°17' E 174°00'0 0.0
2018-Sep-19 09:01S 41°17' E 174°00'0 0.0
2018-Sep-19 08:58S 41°17' E 174°00'0 0.0
2018-Sep-19 08:30S 41°17' E 174°00'1 1.5
2018-Sep-19 08:03S 41°16' E 174°01'110.7
2018-Sep-19 08:00S 41°16' E 174°01'612.9
2018-Sep-19 07:30S 41°14' E 174°09'512.1
2018-Sep-19 07:04S 41°13' E 174°17'113.9
2018-Sep-19 07:00S 41°13' E 174°17'714.7
2018-Sep-19 06:31S 41°16' E 174°26'816.7
2018-Sep-19 06:03S 41°20' E 174°35'116.1
2018-Sep-19 06:00S 41°21' E 174°35'816.1
2018-Sep-19 05:30S 41°23' E 174°46'613.8
2018-Sep-19 05:03S 41°17' E 174°51'115.4
2018-Sep-19 05:00S 41°17' E 174°50'2 3.6
2018-Sep-19 04:21S 41°16' E 174°47'0 0.0
2018-Sep-19 03:57S 41°16' E 174°47'0 0.0
2018-Sep-19 03:26S 41°16' E 174°47'0 0.0
2018-Sep-19 02:56S 41°16' E 174°47'0 0.0
2018-Sep-19 02:26S 41°16' E 174°47'0 0.0
2018-Sep-19 01:25S 41°16' E 174°47'0 0.0
2018-Sep-19 01:01S 41°16' E 174°47'0 0.0
2018-Sep-19 00:55S 41°16' E 174°47'0 0.0
2018-Sep-19 00:13S 41°16' E 174°47'0 2.6
2018-Sep-19 00:03S 41°16' E 174°48'111.9
2018-Sep-19 00:00S 41°16' E 174°48'713.7
2018-Sep-18 23:30S 41°23' E 174°50'817.1
2018-Sep-18 23:03S 41°23' E 174°40'117.6
2018-Sep-18 23:00S 41°23' E 174°38'917.1
2018-Sep-18 22:31S 41°18' E 174°29'816.7
2018-Sep-18 22:04S 41°14' E 174°20'117.3
2018-Sep-18 22:01S 41°13' E 174°20'713.8
2018-Sep-18 21:31S 41°15' E 174°11'612.7
2018-Sep-18 21:03S 41°15' E 174°03'114.7
2018-Sep-18 21:01S 41°15' E 174°02'3 4.7
2018-Sep-18 20:28S 41°17' E 174°00'0 0.0
2018-Sep-18 20:01S 41°17' E 174°00'0 0.0
2018-Sep-18 19:58S 41°17' E 174°00'0 0.0
2018-Sep-18 19:28S 41°17' E 174°00'0 0.0
2018-Sep-18 19:01S 41°17' E 174°00'0 0.0
2018-Sep-18 18:58S 41°17' E 174°00'1 1.8
2018-Sep-18 18:31S 41°16' E 174°01'613.9
2018-Sep-18 18:04S 41°14' E 174°08'112.7
2018-Sep-18 18:01S 41°14' E 174°09'611.4
2018-Sep-18 17:30S 41°13' E 174°17'716.1
2018-Sep-18 17:03S 41°16' E 174°26'118.3
2018-Sep-18 17:00S 41°17' E 174°27'1019.3
2018-Sep-18 16:30S 41°22' E 174°38'918.9
2018-Sep-18 16:03S 41°22' E 174°49'318.3
2018-Sep-18 15:52S 41°19' E 174°51'411.5
2018-Sep-18 15:30S 41°16' E 174°47'0 0.1
2018-Sep-18 15:02S 41°16' E 174°47'0 0.0
2018-Sep-18 15:00S 41°16' E 174°47'0 0.0
2018-Sep-18 14:01S 41°16' E 174°47'0 0.0
2018-Sep-18 14:00S 41°16' E 174°47'1 1.1
2018-Sep-18 13:30S 41°16' E 174°48'611.6
2018-Sep-18 13:01S 41°22' E 174°50'714.0
2018-Sep-18 12:30S 41°23' E 174°41'715.3
2018-Sep-18 12:04S 41°20' E 174°33'115.6
2018-Sep-18 12:01S 41°20' E 174°32'816.2
2018-Sep-18 11:31S 41°15' E 174°23'612.7
2018-Sep-18 11:04S 41°14' E 174°16'114.3
2018-Sep-18 11:01S 41°14' E 174°15'612.5
2018-Sep-18 10:31S 41°14' E 174°07'512.2
2018-Sep-18 10:04S 41°17' E 174°01'0 3.3
2018-Sep-18 10:01S 41°17' E 174°00'0 0.0
2018-Sep-18 09:30S 41°17' E 174°00'0 0.0
2018-Sep-18 09:03S 41°17' E 174°00'0 0.0
2018-Sep-18 09:01S 41°17' E 174°00'0 0.0
2018-Sep-18 08:31S 41°17' E 174°00'1 1.3
2018-Sep-18 08:04S 41°16' E 174°01'111.7
2018-Sep-18 08:00S 41°16' E 174°01'612.9
2018-Sep-18 07:30S 41°14' E 174°09'511.9
2018-Sep-18 07:03S 41°14' E 174°16'113.5
2018-Sep-18 07:00S 41°13' E 174°17'815.3
2018-Sep-18 06:30S 41°16' E 174°26'817.2
2018-Sep-18 06:03S 41°21' E 174°35'116.9
2018-Sep-18 06:00S 41°21' E 174°36'816.0
2018-Sep-18 05:30S 41°22' E 174°47'613.2
2018-Sep-18 05:02S 41°17' E 174°50'116.6
2018-Sep-18 05:00S 41°17' E 174°50'2 3.6
2018-Sep-18 04:26S 41°16' E 174°47'0 0.0
2018-Sep-18 04:02S 41°16' E 174°47'0 0.0
2018-Sep-18 03:56S 41°16' E 174°47'0 0.0
2018-Sep-18 03:26S 41°16' E 174°47'0 0.0
2018-Sep-18 02:27S 41°16' E 174°47'0 0.0
2018-Sep-18 02:03S 41°16' E 174°47'0 0.0
2018-Sep-18 01:57S 41°16' E 174°47'0 0.0
2018-Sep-18 01:02S 41°16' E 174°47'0 0.0
2018-Sep-18 00:56S 41°16' E 174°47'0 0.0
2018-Sep-18 00:30S 41°16' E 174°47'3 7.3
2018-Sep-18 00:02S 41°17' E 174°51'217.2
2018-Sep-17 23:56S 41°19' E 174°51'613.8
2018-Sep-17 23:30S 41°23' E 174°46'715.7
2018-Sep-17 23:03S 41°22' E 174°37'116.3
2018-Sep-17 23:00S 41°22' E 174°36'816.7
2018-Sep-17 22:30S 41°17' E 174°26'716.2
2018-Sep-17 22:04S 41°13' E 174°19'116.0
2018-Sep-17 22:00S 41°13' E 174°18'713.5
2018-Sep-17 21:30S 41°14' E 174°09'613.0
2018-Sep-17 21:03S 41°16' E 174°02'114.0
2018-Sep-17 21:00S 41°16' E 174°01'1 1.8
2018-Sep-17 20:29S 41°17' E 174°00'0 0.0
2018-Sep-17 20:02S 41°17' E 174°00'0 0.0
2018-Sep-17 19:59S 41°17' E 174°00'0 0.0
2018-Sep-17 19:29S 41°17' E 174°00'0 0.0
2018-Sep-17 19:01S 41°17' E 174°00'0 0.0
2018-Sep-17 18:58S 41°17' E 174°00'1 2.6
2018-Sep-17 18:30S 41°16' E 174°01'614.1
2018-Sep-17 18:04S 41°13' E 174°09'112.3
2018-Sep-17 18:00S 41°14' E 174°09'611.8
2018-Sep-17 17:31S 41°13' E 174°17'613.8
2018-Sep-17 17:03S 41°16' E 174°25'114.8
2018-Sep-17 17:00S 41°16' E 174°26'815.1
2018-Sep-17 16:30S 41°20' E 174°34'715.0
2018-Sep-17 16:04S 41°23' E 174°42'114.4
2018-Sep-17 16:01S 41°23' E 174°43'713.3
2018-Sep-17 15:29S 41°19' E 174°51'410.2
2018-Sep-17 15:03S 41°16' E 174°47'0 1.5
2018-Sep-17 14:59S 41°16' E 174°47'0 0.0
2018-Sep-17 14:30S 41°16' E 174°47'0 0.0
2018-Sep-17 13:57S 41°16' E 174°47'0 0.0
2018-Sep-17 13:26S 41°16' E 174°47'0 0.0
2018-Sep-17 13:02S 41°16' E 174°47'0 0.0
2018-Sep-17 12:55S 41°16' E 174°47'0 0.0
2018-Sep-17 12:28S 41°16' E 174°47'0 0.0
2018-Sep-17 12:02S 41°16' E 174°47'0 0.0
2018-Sep-17 11:57S 41°16' E 174°47'0 0.0
2018-Sep-17 11:29S 41°16' E 174°47'0 0.0
2018-Sep-17 11:03S 41°16' E 174°47'0 0.0
2018-Sep-17 11:00S 41°16' E 174°47'0 0.0
2018-Sep-17 10:27S 41°16' E 174°47'0 0.0
2018-Sep-17 10:02S 41°16' E 174°47'0 0.0
2018-Sep-17 09:58S 41°16' E 174°47'0 0.0
2018-Sep-17 09:30S 41°16' E 174°47'0 0.3
2018-Sep-17 09:02S 41°16' E 174°47'0 1.3
2018-Sep-17 09:00S 41°16' E 174°47'0 0.2
2018-Sep-17 08:30S 41°16' E 174°47'0 0.0
2018-Sep-17 08:03S 41°16' E 174°47'0 0.0
2018-Sep-17 08:00S 41°16' E 174°47'0 0.0
2018-Sep-17 07:30S 41°16' E 174°47'0 0.0
2018-Sep-17 07:03S 41°16' E 174°47'0 0.0
2018-Sep-17 07:00S 41°16' E 174°47'0 0.0
2018-Sep-17 06:27S 41°16' E 174°47'0 0.0
2018-Sep-17 05:57S 41°16' E 174°47'0 0.0
2018-Sep-17 05:30S 41°16' E 174°47'0 0.0
2018-Sep-17 05:03S 41°16' E 174°47'0 0.0
2018-Sep-17 05:00S 41°16' E 174°47'0 0.0
2018-Sep-17 04:30S 41°16' E 174°47'0 0.0
2018-Sep-17 04:03S 41°16' E 174°47'0 0.0
2018-Sep-17 04:00S 41°16' E 174°47'0 0.0
2018-Sep-17 03:29S 41°16' E 174°47'0 0.0
2018-Sep-17 03:03S 41°16' E 174°47'0 0.0
2018-Sep-17 03:00S 41°16' E 174°47'0 0.0
2018-Sep-17 02:30S 41°16' E 174°47'0 0.0
2018-Sep-17 02:03S 41°16' E 174°47'0 0.0
2018-Sep-17 02:00S 41°16' E 174°47'0 0.0
2018-Sep-17 01:30S 41°16' E 174°47'0 0.0
2018-Sep-17 01:03S 41°16' E 174°47'0 0.0
2018-Sep-17 01:00S 41°16' E 174°47'0 0.0
2018-Sep-17 00:29S 41°16' E 174°47'0 0.0
2018-Sep-17 00:03S 41°16' E 174°47'0 0.0
2018-Sep-17 00:00S 41°16' E 174°47'0 0.0
2018-Sep-16 23:30S 41°16' E 174°47'0 0.0
2018-Sep-16 23:02S 41°16' E 174°47'0 0.0
2018-Sep-16 22:59S 41°16' E 174°47'0 0.0
2018-Sep-16 22:30S 41°16' E 174°47'0 0.0
2018-Sep-16 22:03S 41°16' E 174°47'0 0.0
2018-Sep-16 22:00S 41°16' E 174°47'0 0.0
2018-Sep-16 21:29S 41°16' E 174°47'0 0.0
2018-Sep-16 21:03S 41°16' E 174°47'0 0.0
2018-Sep-16 21:00S 41°16' E 174°47'0 0.0
2018-Sep-16 20:30S 41°16' E 174°47'0 0.0
2018-Sep-16 20:03S 41°16' E 174°47'0 0.0
2018-Sep-16 20:00S 41°16' E 174°47'0 0.0
2018-Sep-16 19:28S 41°16' E 174°47'0 0.0
2018-Sep-16 19:03S 41°16' E 174°47'0 0.0
2018-Sep-16 19:00S 41°16' E 174°47'0 0.0
2018-Sep-16 18:29S 41°16' E 174°47'0 0.0
2018-Sep-16 18:03S 41°16' E 174°47'0 0.0
2018-Sep-16 18:00S 41°16' E 174°47'0 0.0
2018-Sep-16 17:30S 41°16' E 174°47'0 0.4
2018-Sep-16 17:03S 41°16' E 174°47'0 0.0
2018-Sep-16 17:00S 41°16' E 174°47'0 0.0
2018-Sep-16 16:30S 41°16' E 174°47'1 1.3
2018-Sep-16 16:02S 41°16' E 174°48'111.6
2018-Sep-16 15:59S 41°16' E 174°49'5 9.3
2018-Sep-16 15:24S 41°22' E 174°50'411.3
2018-Sep-16 15:03S 41°23' E 174°46'116.8
2018-Sep-16 15:00S 41°23' E 174°45'1616.5
2018-Sep-16 14:03S 41°16' E 174°26'814.2
2018-Sep-16 13:30S 41°14' E 174°16'511.9
2018-Sep-16 13:04S 41°14' E 174°09'112.1
2018-Sep-16 13:00S 41°14' E 174°08'713.5
2018-Sep-16 12:31S 41°17' E 174°01'0 0.4
2018-Sep-16 12:03S 41°17' E 174°00'0 0.0
2018-Sep-16 12:00S 41°17' E 174°00'0 0.0
2018-Sep-16 11:30S 41°17' E 174°00'0 0.7
2018-Sep-16 11:03S 41°17' E 174°01'0 9.5
2018-Sep-16 11:01S 41°16' E 174°01'713.5
2018-Sep-16 10:31S 41°14' E 174°09'612.9
2018-Sep-16 10:04S 41°13' E 174°17'115.8
2018-Sep-16 10:01S 41°13' E 174°18'816.2
2018-Sep-16 09:31S 41°17' E 174°27'716.3
2018-Sep-16 09:03S 41°21' E 174°35'116.3
2018-Sep-16 09:01S 41°21' E 174°36'816.2
2018-Sep-16 08:31S 41°22' E 174°47'612.8
2018-Sep-16 08:01S 41°17' E 174°50'017.9
2018-Sep-16 08:00S 41°16' E 174°49'2 3.0
2018-Sep-16 07:30S 41°16' E 174°47'0 0.0
2018-Sep-16 06:56S 41°16' E 174°47'0 0.0
2018-Sep-16 06:29S 41°16' E 174°47'1 3.2
2018-Sep-16 06:02S 41°16' E 174°49'0 2.4
2018-Sep-16 05:56S 41°16' E 174°49'1 1.1
2018-Sep-16 05:28S 41°16' E 174°49'1 1.1
2018-Sep-16 05:01S 41°16' E 174°48'0 5.5
2018-Sep-16 05:00S 41°16' E 174°48'1 1.3
2018-Sep-16 04:30S 41°16' E 174°47'0 0.0
2018-Sep-16 04:03S 41°16' E 174°47'0 0.0
2018-Sep-16 03:59S 41°16' E 174°47'0 0.0
2018-Sep-16 03:28S 41°16' E 174°47'0 0.0
2018-Sep-16 03:03S 41°16' E 174°47'0 0.0
2018-Sep-16 02:59S 41°16' E 174°47'0 0.0
2018-Sep-16 02:30S 41°16' E 174°47'0 0.0
2018-Sep-16 00:55S 41°16' E 174°47'0 0.0
2018-Sep-16 00:30S 41°16' E 174°47'0 0.0
2018-Sep-16 00:03S 41°16' E 174°47'0 0.0
2018-Sep-15 23:59S 41°16' E 174°47'0 0.0
2018-Sep-15 23:29S 41°16' E 174°47'0 0.0
2018-Sep-15 23:03S 41°16' E 174°47'0 0.0
2018-Sep-15 23:00S 41°16' E 174°47'0 0.0
2018-Sep-15 22:25S 41°16' E 174°47'0 0.0
2018-Sep-15 22:01S 41°16' E 174°47'0 0.0
2018-Sep-15 21:57S 41°16' E 174°47'0 0.0
2018-Sep-15 21:27S 41°16' E 174°47'0 0.0
2018-Sep-15 21:02S 41°16' E 174°47'0 0.0
2018-Sep-15 21:00S 41°16' E 174°47'0 0.0
2018-Sep-15 20:28S 41°16' E 174°47'0 0.0
2018-Sep-15 19:58S 41°16' E 174°47'0 0.0
2018-Sep-15 19:30S 41°16' E 174°47'0 0.0
2018-Sep-15 19:00S 41°16' E 174°47'0 0.0
2018-Sep-15 18:30S 41°16' E 174°47'0 0.0
2018-Sep-15 17:58S 41°16' E 174°47'0 0.0
2018-Sep-15 17:29S 41°16' E 174°47'0 0.0
2018-Sep-15 16:59S 41°16' E 174°47'0 0.0
2018-Sep-15 16:29S 41°16' E 174°47'0 0.0
2018-Sep-15 16:01S 41°16' E 174°47'0 0.0
2018-Sep-15 15:33S 41°16' E 174°47'0 0.2
2018-Sep-15 15:16S 41°16' E 174°47'0 0.1
2018-Sep-15 13:52S 41°16' E 174°47'3 6.3
2018-Sep-15 13:26S 41°17' E 174°51'615.4
2018-Sep-15 13:03S 41°22' E 174°50'116.0
2018-Sep-15 13:00S 41°23' E 174°50'815.8
2018-Sep-15 12:30S 41°23' E 174°39'715.6
2018-Sep-15 12:03S 41°19' E 174°31'115.6
2018-Sep-15 12:00S 41°19' E 174°30'816.3
2018-Sep-15 11:30S 41°14' E 174°21'612.3
2018-Sep-15 11:03S 41°14' E 174°14'113.6
2018-Sep-15 11:00S 41°14' E 174°13'612.2
2018-Sep-15 10:30S 41°14' E 174°05'4 9.9
2018-Sep-15 10:03S 41°17' E 174°00'0 0.0
2018-Sep-15 10:00S 41°17' E 174°00'0 0.0
2018-Sep-15 09:31S 41°17' E 174°00'0 0.0
2018-Sep-15 09:03S 41°17' E 174°00'0 0.0
2018-Sep-15 09:01S 41°17' E 174°00'0 0.0
2018-Sep-15 08:30S 41°17' E 174°00'0 0.4
2018-Sep-15 08:03S 41°17' E 174°01'0 3.7
2018-Sep-15 08:00S 41°17' E 174°00'713.5
2018-Sep-15 07:30S 41°14' E 174°08'612.9
2018-Sep-15 07:04S 41°14' E 174°16'115.2
2018-Sep-15 07:00S 41°13' E 174°17'815.1
2018-Sep-15 06:31S 41°16' E 174°26'715.7
2018-Sep-15 06:04S 41°20' E 174°34'115.0
2018-Sep-15 06:01S 41°20' E 174°35'815.2
2018-Sep-15 05:31S 41°23' E 174°44'712.8
2018-Sep-15 04:57S 41°17' E 174°50'3 5.9
2018-Sep-15 04:30S 41°16' E 174°47'0 0.0
2018-Sep-15 02:52S 41°16' E 174°47'0 0.0
2018-Sep-15 02:27S 41°16' E 174°47'0 0.0
2018-Sep-15 02:03S 41°16' E 174°47'0 0.0
2018-Sep-15 01:51S 41°16' E 174°47'0 0.0
2018-Sep-15 01:03S 41°16' E 174°47'0 0.0
2018-Sep-15 00:32S 41°16' E 174°47'0 0.0
2018-Sep-15 00:29S 41°16' E 174°47'4 8.0
2018-Sep-14 23:56S 41°19' E 174°51'613.8
2018-Sep-14 23:30S 41°23' E 174°46'715.7
2018-Sep-14 23:03S 41°22' E 174°37'115.9
2018-Sep-14 23:00S 41°22' E 174°36'917.1
2018-Sep-14 22:30S 41°17' E 174°26'716.3
2018-Sep-14 22:03S 41°13' E 174°18'115.7
2018-Sep-14 22:00S 41°13' E 174°17'  
Track history (hours):
 
Tides and Currents Weather Stations Pressure Air Temp Water Temp Dewpoint Dewpoint Depression Visibility Wind Speed Wind Dir Waves Ship Positions

Dawn Merchant

Operator: Norfolk Line

Last reported at 2018-Sep-24 22:00 UTC. Time now 2018-Sep-24 22:02 UTC.
Position S 41°13' E 174°20'.

Length 180 m; draft 5.4 m.

Type: Passenger vessel. MMSI: 232197000.

Date/timePositionNaut miles runAvg speedWind from/ knotsBaromVisibWave heightAir tempDewpointWater temp
2018-Sep-24 22:00S 41°13' E 174°20'714.6
2018-Sep-24 21:30S 41°15' E 174°10'612.9
2018-Sep-24 21:03S 41°15' E 174°03'114.3
2018-Sep-24 21:00S 41°15' E 174°02'2 4.1
2018-Sep-24 20:30S 41°17' E 174°00'0 0.0
2018-Sep-24 20:03S 41°17' E 174°00'0 0.0
2018-Sep-24 20:00S 41°17' E 174°00'0 0.0
2018-Sep-24 19:31S 41°17' E 174°00'0 0.0
2018-Sep-24 19:03S 41°17' E 174°00'0 0.0
2018-Sep-24 19:00S 41°17' E 174°00'1 2.7
2018-Sep-24 18:30S 41°16' E 174°01'614.1
2018-Sep-24 18:04S 41°14' E 174°09'114.1
2018-Sep-24 18:00S 41°14' E 174°09'714.8
2018-Sep-24 17:30S 41°13' E 174°19'613.2
2018-Sep-24 17:03S 41°16' E 174°26'111.7
2018-Sep-24 17:00S 41°16' E 174°26'612.5
2018-Sep-24 16:31S 41°20' E 174°33'613.2
2018-Sep-24 16:04S 41°22' E 174°40'116.2
2018-Sep-24 16:00S 41°23' E 174°41'911.0
2018-Sep-24 15:13S 41°17' E 174°50'210.2
2018-Sep-24 15:03S 41°16' E 174°47'0 2.3
2018-Sep-24 14:58S 41°16' E 174°47'0 0.0
2018-Sep-24 14:21S 41°16' E 174°47'0 0.0
2018-Sep-24 13:54S 41°16' E 174°47'0 0.0
2018-Sep-24 13:23S 41°16' E 174°47'0 0.3
2018-Sep-24 13:02S 41°16' E 174°47'0 3.4
2018-Sep-24 13:00S 41°16' E 174°47'611.2
2018-Sep-24 12:28S 41°22' E 174°50'615.9
2018-Sep-24 12:04S 41°23' E 174°42'119.6
2018-Sep-24 12:01S 41°23' E 174°41'1019.7
2018-Sep-24 11:31S 41°19' E 174°29'817.9
2018-Sep-24 11:04S 41°14' E 174°20'118.5
2018-Sep-24 11:01S 41°13' E 174°20'815.4
2018-Sep-24 10:31S 41°15' E 174°10'612.5
2018-Sep-24 10:04S 41°15' E 174°02'114.2
2018-Sep-24 10:01S 41°16' E 174°02'2 3.1
2018-Sep-24 09:28S 41°17' E 174°00'0 0.0
2018-Sep-24 09:03S 41°17' E 174°00'0 0.0
2018-Sep-24 09:00S 41°17' E 174°00'0 0.0
2018-Sep-24 08:30S 41°17' E 174°00'0 0.0
2018-Sep-24 08:03S 41°17' E 174°00'0 0.0
2018-Sep-24 08:00S 41°17' E 174°00'0 0.0
2018-Sep-24 07:30S 41°17' E 174°00'0 0.3
2018-Sep-24 07:03S 41°17' E 174°01'0 1.7
2018-Sep-24 07:00S 41°17' E 174°01'0 0.4
2018-Sep-24 06:29S 41°17' E 174°00'0 0.0
2018-Sep-24 06:01S 41°17' E 174°00'0 0.0
2018-Sep-24 05:58S 41°17' E 174°00'0 0.0
2018-Sep-24 05:28S 41°17' E 174°00'0 0.0
2018-Sep-24 05:01S 41°17' E 174°00'0 0.0
2018-Sep-24 04:58S 41°17' E 174°00'0 0.0
2018-Sep-24 04:28S 41°17' E 174°00'0 0.0
2018-Sep-24 04:03S 41°17' E 174°00'0 0.0
2018-Sep-24 04:00S 41°17' E 174°00'0 0.0
2018-Sep-24 03:30S 41°17' E 174°00'0 0.0
2018-Sep-24 03:03S 41°17' E 174°00'0 0.0
2018-Sep-24 03:00S 41°17' E 174°00'0 0.0
2018-Sep-24 02:29S 41°17' E 174°00'0 0.0
2018-Sep-24 02:02S 41°17' E 174°00'0 0.0
2018-Sep-24 01:59S 41°17' E 174°00'0 0.0
2018-Sep-24 01:29S 41°17' E 174°00'0 0.0
2018-Sep-24 01:02S 41°17' E 174°00'0 0.0
2018-Sep-24 00:59S 41°17' E 174°00'0 0.0
2018-Sep-24 00:28S 41°17' E 174°00'0 0.0
2018-Sep-24 00:01S 41°17' E 174°00'0 0.0
2018-Sep-23 23:58S 41°17' E 174°00'0 0.0
2018-Sep-23 23:28S 41°17' E 174°00'0 0.0
2018-Sep-23 23:03S 41°17' E 174°00'0 0.0
2018-Sep-23 23:00S 41°17' E 174°00'0 0.0
2018-Sep-23 22:30S 41°17' E 174°00'0 0.0
2018-Sep-23 22:03S 41°17' E 174°00'0 0.0
2018-Sep-23 22:00S 41°17' E 174°00'0 0.0
2018-Sep-23 21:29S 41°17' E 174°00'0 0.0
2018-Sep-23 21:02S 41°17' E 174°00'0 0.0
2018-Sep-23 20:59S 41°17' E 174°00'0 0.0
2018-Sep-23 20:29S 41°17' E 174°00'0 0.0
2018-Sep-23 20:02S 41°17' E 174°00'0 0.0
2018-Sep-23 19:59S 41°17' E 174°00'0 0.0
2018-Sep-23 19:28S 41°17' E 174°00'0 0.0
2018-Sep-23 19:01S 41°17' E 174°00'0 0.0
2018-Sep-23 18:58S 41°17' E 174°00'0 0.0
2018-Sep-23 18:28S 41°17' E 174°00'0 0.0
2018-Sep-23 18:03S 41°17' E 174°00'0 0.0
2018-Sep-23 18:00S 41°17' E 174°00'0 0.0
2018-Sep-23 17:30S 41°17' E 174°00'0 0.0
2018-Sep-23 17:03S 41°17' E 174°00'0 0.0
2018-Sep-23 17:00S 41°17' E 174°00'0 0.0
2018-Sep-23 16:29S 41°17' E 174°00'0 0.0
2018-Sep-23 16:02S 41°17' E 174°00'0 0.0
2018-Sep-23 15:59S 41°17' E 174°00'0 0.0
2018-Sep-23 15:29S 41°17' E 174°00'0 0.0
2018-Sep-23 15:02S 41°17' E 174°00'0 0.1
2018-Sep-23 14:59S 41°17' E 174°00'0 0.0
2018-Sep-23 14:28S 41°17' E 174°00'0 0.0
2018-Sep-23 13:28S 41°17' E 174°00'0 0.0
2018-Sep-23 13:03S 41°17' E 174°00'0 0.0
2018-Sep-23 13:00S 41°17' E 174°00'0 0.0
2018-Sep-23 12:30S 41°17' E 174°00'0 0.0
2018-Sep-23 12:03S 41°17' E 174°00'0 0.0
2018-Sep-23 12:00S 41°17' E 174°00'0 0.0
2018-Sep-23 11:30S 41°17' E 174°00'0 0.0
2018-Sep-23 11:02S 41°17' E 174°00'0 0.0
2018-Sep-23 10:59S 41°17' E 174°00'0 0.0
2018-Sep-23 10:29S 41°17' E 174°00'0 0.0
2018-Sep-23 10:02S 41°17' E 174°00'0 0.0
2018-Sep-23 09:59S 41°17' E 174°00'0 0.0
2018-Sep-23 09:28S 41°17' E 174°00'0 0.0
2018-Sep-23 09:01S 41°17' E 174°00'0 0.0
2018-Sep-23 08:58S 41°17' E 174°00'0 0.0
2018-Sep-23 08:28S 41°17' E 174°00'0 0.0
2018-Sep-23 08:00S 41°17' E 174°00'0 0.0
2018-Sep-23 07:30S 41°17' E 174°00'0 0.0
2018-Sep-23 07:03S 41°17' E 174°00'0 0.0
2018-Sep-23 07:00S 41°17' E 174°00'0 0.0
2018-Sep-23 06:30S 41°17' E 174°00'0 0.0
2018-Sep-23 06:02S 41°17' E 174°00'0 0.0
2018-Sep-23 05:59S 41°17' E 174°00'0 0.0
2018-Sep-23 05:29S 41°17' E 174°00'0 0.0
2018-Sep-23 05:02S 41°17' E 174°00'0 0.0
2018-Sep-23 04:59S 41°17' E 174°00'0 0.0
2018-Sep-23 04:28S 41°17' E 174°00'0 0.0
2018-Sep-23 04:01S 41°17' E 174°00'0 0.0
2018-Sep-23 03:58S 41°17' E 174°00'0 0.0
2018-Sep-23 03:28S 41°17' E 174°00'0 0.0
2018-Sep-23 03:01S 41°17' E 174°00'0 0.0
2018-Sep-23 02:58S 41°17' E 174°00'0 0.0
2018-Sep-23 02:30S 41°17' E 174°00'0 0.0
2018-Sep-23 02:03S 41°17' E 174°00'0 0.1
2018-Sep-23 02:00S 41°17' E 174°00'0 0.0
2018-Sep-23 01:30S 41°17' E 174°00'0 0.0
2018-Sep-23 01:02S 41°17' E 174°00'0 0.0
2018-Sep-23 00:59S 41°17' E 174°00'0 0.0
2018-Sep-23 00:29S 41°17' E 174°00'0 0.0
2018-Sep-23 00:02S 41°17' E 174°00'0 0.0
2018-Sep-22 23:59S 41°17' E 174°00'0 0.0
2018-Sep-22 23:28S 41°17' E 174°00'0 0.0
2018-Sep-22 23:01S 41°17' E 174°00'0 0.0
2018-Sep-22 22:58S 41°17' E 174°00'0 0.0
2018-Sep-22 22:28S 41°17' E 174°00'0 0.0
2018-Sep-22 22:01S 41°17' E 174°00'0 0.0
2018-Sep-22 21:58S 41°17' E 174°00'0 0.0
2018-Sep-22 21:30S 41°17' E 174°00'0 0.0
2018-Sep-22 21:03S 41°17' E 174°00'0 0.0
2018-Sep-22 21:00S 41°17' E 174°00'0 0.0
2018-Sep-22 20:30S 41°17' E 174°00'0 0.0
2018-Sep-22 20:02S 41°17' E 174°00'0 0.0
2018-Sep-22 19:59S 41°17' E 174°00'0 0.0
2018-Sep-22 19:29S 41°17' E 174°00'0 0.0
2018-Sep-22 19:02S 41°17' E 174°00'0 0.0
2018-Sep-22 18:59S 41°17' E 174°00'0 0.0
2018-Sep-22 18:29S 41°17' E 174°00'0 0.0
2018-Sep-22 18:01S 41°17' E 174°00'0 0.1
2018-Sep-22 17:58S 41°17' E 174°00'0 0.0
2018-Sep-22 17:28S 41°17' E 174°00'0 0.0
2018-Sep-22 17:01S 41°17' E 174°00'0 0.0
2018-Sep-22 16:58S 41°17' E 174°00'0 0.0
2018-Sep-22 16:30S 41°17' E 174°00'0 0.0
2018-Sep-22 16:03S 41°17' E 174°00'0 0.0
2018-Sep-22 16:00S 41°17' E 174°00'0 0.0
2018-Sep-22 15:30S 41°17' E 174°00'0 0.0
2018-Sep-22 15:02S 41°17' E 174°00'0 0.0
2018-Sep-22 14:59S 41°17' E 174°00'0 0.0
2018-Sep-22 14:02S 41°17' E 174°00'0 0.0
2018-Sep-22 13:59S 41°17' E 174°00'0 0.0
2018-Sep-22 13:29S 41°17' E 174°00'0 0.0
2018-Sep-22 13:01S 41°17' E 174°00'0 0.0
2018-Sep-22 12:58S 41°17' E 174°00'0 0.0
2018-Sep-22 12:28S 41°17' E 174°00'0 0.0
2018-Sep-22 12:01S 41°17' E 174°00'0 0.0
2018-Sep-22 11:58S 41°17' E 174°00'0 0.0
2018-Sep-22 11:30S 41°17' E 174°00'0 0.0
2018-Sep-22 11:03S 41°17' E 174°00'0 0.1
2018-Sep-22 11:00S 41°17' E 174°00'0 0.0
2018-Sep-22 10:30S 41°17' E 174°00'0 0.0
2018-Sep-22 10:03S 41°17' E 174°00'0 0.0
2018-Sep-22 10:00S 41°17' E 174°00'0 0.0
2018-Sep-22 09:29S 41°17' E 174°00'0 0.0
2018-Sep-22 09:03S 41°17' E 174°00'0 1.1
2018-Sep-22 09:00S 41°17' E 174°00'0 0.3
2018-Sep-22 08:29S 41°17' E 174°00'0 0.0
2018-Sep-22 08:03S 41°17' E 174°00'0 0.5
2018-Sep-22 08:00S 41°17' E 174°00'1 1.7
2018-Sep-22 07:30S 41°16' E 174°01'612.9
2018-Sep-22 07:04S 41°14' E 174°08'114.8
2018-Sep-22 07:01S 41°13' E 174°09'611.5
2018-Sep-22 06:30S 41°14' E 174°16'816.7
2018-Sep-22 06:03S 41°16' E 174°26'119.9
2018-Sep-22 06:00S 41°17' E 174°27'1121.8
2018-Sep-22 05:31S 41°22' E 174°39'917.3
2018-Sep-22 04:58S 41°19' E 174°51'4 9.3
2018-Sep-22 04:30S 41°16' E 174°47'0 0.0
2018-Sep-22 04:02S 41°16' E 174°47'0 0.0
2018-Sep-22 04:00S 41°16' E 174°47'0 0.0
2018-Sep-22 03:30S 41°16' E 174°47'0 0.0
2018-Sep-22 03:03S 41°16' E 174°47'0 0.0
2018-Sep-22 02:59S 41°16' E 174°47'0 0.0
2018-Sep-22 02:30S 41°16' E 174°47'0 0.0
2018-Sep-22 02:02S 41°16' E 174°47'0 0.0
2018-Sep-22 02:00S 41°16' E 174°47'0 0.0
2018-Sep-22 01:30S 41°16' E 174°47'0 0.0
2018-Sep-22 01:03S 41°16' E 174°47'0 0.0
2018-Sep-22 00:59S 41°16' E 174°47'0 0.0
2018-Sep-22 00:26S 41°16' E 174°47'1 1.9
2018-Sep-22 00:02S 41°16' E 174°48'112.6
2018-Sep-21 23:59S 41°16' E 174°49'613.4
2018-Sep-21 23:30S 41°23' E 174°50'715.6
2018-Sep-21 23:03S 41°23' E 174°41'117.5
2018-Sep-21 23:00S 41°23' E 174°40'816.8
2018-Sep-21 22:30S 41°19' E 174°30'715.9
2018-Sep-21 22:03S 41°15' E 174°22'116.2
2018-Sep-21 22:00S 41°14' E 174°21'713.8
2018-Sep-21 21:30S 41°14' E 174°12'613.2
2018-Sep-21 21:03S 41°15' E 174°04'115.0
2018-Sep-21 21:00S 41°15' E 174°03'3 6.0
2018-Sep-21 20:30S 41°17' E 174°00'0 0.0
2018-Sep-21 20:03S 41°17' E 174°00'0 0.0
2018-Sep-21 20:00S 41°17' E 174°00'0 0.0
2018-Sep-21 19:30S 41°17' E 174°00'0 0.0
2018-Sep-21 19:03S 41°17' E 174°00'0 0.0
2018-Sep-21 19:00S 41°17' E 174°00'2 4.9
2018-Sep-21 18:30S 41°15' E 174°02'612.4
2018-Sep-21 18:03S 41°15' E 174°09'114.4
2018-Sep-21 18:00S 41°15' E 174°10'714.6
2018-Sep-21 17:30S 41°13' E 174°20'816.9
2018-Sep-21 17:03S 41°17' E 174°28'118.0
2018-Sep-21 17:00S 41°18' E 174°29'918.6
2018-Sep-21 16:30S 41°23' E 174°40'914.9
2018-Sep-21 15:55S 41°19' E 174°51'410.2
2018-Sep-21 15:30S 41°16' E 174°47'0 0.0
2018-Sep-21 13:45S 41°16' E 174°47'0 0.6
2018-Sep-21 13:27S 41°16' E 174°47'4 9.1
2018-Sep-21 12:59S 41°19' E 174°51'714.3
2018-Sep-21 12:30S 41°23' E 174°44'817.7
2018-Sep-21 12:03S 41°21' E 174°34'118.3
2018-Sep-21 12:01S 41°21' E 174°33'815.8
2018-Sep-21 11:31S 41°16' E 174°24'613.5
2018-Sep-21 11:03S 41°13' E 174°18'116.4
2018-Sep-21 11:01S 41°14' E 174°17'713.1
2018-Sep-21 10:30S 41°14' E 174°08'613.7
2018-Sep-21 10:03S 41°17' E 174°01'0 8.6
2018-Sep-21 10:00S 41°17' E 174°00'0 0.0
2018-Sep-21 09:30S 41°17' E 174°00'0 0.0
2018-Sep-21 09:03S 41°17' E 174°00'0 0.0
2018-Sep-21 09:00S 41°17' E 174°00'0 0.0
2018-Sep-21 08:30S 41°17' E 174°00'0 0.7
2018-Sep-21 08:03S 41°17' E 174°01'0 8.5
2018-Sep-21 08:00S 41°16' E 174°01'713.6
2018-Sep-21 07:30S 41°14' E 174°09'511.7
2018-Sep-21 07:04S 41°14' E 174°16'115.2
2018-Sep-21 07:01S 41°13' E 174°17'815.2
2018-Sep-21 06:30S 41°16' E 174°26'818.1
2018-Sep-21 06:04S 41°21' E 174°35'118.7
2018-Sep-21 06:00S 41°21' E 174°36'917.7
2018-Sep-21 05:30S 41°22' E 174°48'613.0
2018-Sep-21 05:03S 41°16' E 174°49'115.5
2018-Sep-21 05:00S 41°16' E 174°48'1 1.6
2018-Sep-21 04:24S 41°16' E 174°47'0 0.0
2018-Sep-21 04:00S 41°16' E 174°47'0 0.0
2018-Sep-21 03:30S 41°16' E 174°47'0 0.0
2018-Sep-21 03:03S 41°16' E 174°47'0 0.0
2018-Sep-21 02:58S 41°16' E 174°47'0 0.0
2018-Sep-21 02:30S 41°16' E 174°47'0 0.0
2018-Sep-21 02:02S 41°16' E 174°47'0 0.0
2018-Sep-21 02:00S 41°16' E 174°47'0 0.0
2018-Sep-21 01:30S 41°16' E 174°47'0 0.0
2018-Sep-21 01:03S 41°16' E 174°47'0 0.0
2018-Sep-21 00:58S 41°16' E 174°47'0 0.0
2018-Sep-21 00:30S 41°16' E 174°47'1 3.0
2018-Sep-21 00:03S 41°16' E 174°49'115.9
2018-Sep-20 23:59S 41°16' E 174°50'714.7
2018-Sep-20 23:30S 41°23' E 174°49'715.6
2018-Sep-20 23:04S 41°23' E 174°40'116.1
2018-Sep-20 23:00S 41°23' E 174°39'917.1
2018-Sep-20 22:31S 41°19' E 174°29'716.1
2018-Sep-20 22:04S 41°15' E 174°21'114.9
2018-Sep-20 22:00S 41°14' E 174°20'713.5
2018-Sep-20 21:31S 41°15' E 174°11'613.1
2018-Sep-20 21:03S 41°15' E 174°03'115.5
2018-Sep-20 21:00S 41°15' E 174°02'3 4.9
2018-Sep-20 20:28S 41°17' E 174°00'0 0.0
2018-Sep-20 20:01S 41°17' E 174°00'0 0.0
2018-Sep-20 19:58S 41°17' E 174°00'0 0.0
2018-Sep-20 19:28S 41°17' E 174°00'0 0.0
2018-Sep-20 19:03S 41°17' E 174°00'0 0.0
2018-Sep-20 19:00S 41°17' E 174°00'2 4.5
2018-Sep-20 18:30S 41°15' E 174°02'612.5
2018-Sep-20 18:03S 41°14' E 174°09'112.2
2018-Sep-20 18:01S 41°15' E 174°10'714.4
2018-Sep-20 17:30S 41°13' E 174°19'715.0
2018-Sep-20 17:04S 41°17' E 174°27'114.9
2018-Sep-20 17:01S 41°17' E 174°28'714.9
2018-Sep-20 16:30S 41°21' E 174°36'716.0
2018-Sep-20 16:03S 41°23' E 174°45'116.2
2018-Sep-20 16:01S 41°22' E 174°46'612.3
2018-Sep-20 15:29S 41°17' E 174°50'2 4.6
2018-Sep-20 15:03S 41°16' E 174°47'0 0.0
2018-Sep-20 14:53S 41°16' E 174°47'0 0.0
2018-Sep-20 13:58S 41°16' E 174°47'0 0.0
2018-Sep-20 13:30S 41°16' E 174°47'4 8.1
2018-Sep-20 13:03S 41°18' E 174°51'214.7
2018-Sep-20 12:57S 41°19' E 174°51'512.0
2018-Sep-20 12:30S 41°24' E 174°47'613.9
2018-Sep-20 12:04S 41°23' E 174°39'114.8
2018-Sep-20 12:01S 41°23' E 174°38'815.0
2018-Sep-20 11:30S 41°19' E 174°29'715.1
2018-Sep-20 11:03S 41°15' E 174°22'114.2
2018-Sep-20 11:00S 41°15' E 174°21'611.7
2018-Sep-20 10:30S 41°14' E 174°13'613.1
2018-Sep-20 10:04S 41°14' E 174°05'115.1
2018-Sep-20 10:01S 41°14' E 174°04'4 8.0
2018-Sep-20 09:30S 41°17' E 174°00'0 0.0
2018-Sep-20 09:03S 41°17' E 174°00'0 0.0
2018-Sep-20 09:00S 41°17' E 174°00'0 0.0
2018-Sep-20 08:30S 41°17' E 174°00'0 0.7
2018-Sep-20 08:03S 41°17' E 174°01'0 8.5
2018-Sep-20 08:00S 41°16' E 174°01'713.6
2018-Sep-20 07:30S 41°13' E 174°09'511.2
2018-Sep-20 07:03S 41°14' E 174°16'114.3
2018-Sep-20 07:00S 41°14' E 174°16'612.9
2018-Sep-20 06:30S 41°16' E 174°24'716.5
2018-Sep-20 06:03S 41°20' E 174°33'117.1
2018-Sep-20 06:00S 41°20' E 174°34'917.2
2018-Sep-20 05:30S 41°23' E 174°45'713.9
2018-Sep-20 05:00S 41°17' E 174°51'3 1.2
2018-Sep-20 02:43S 41°16' E 174°47'0 0.0
2018-Sep-20 02:12S 41°16' E 174°47'0 0.0
2018-Sep-20 02:00S 41°16' E 174°47'0 0.0
2018-Sep-20 01:30S 41°16' E 174°47'0 0.0
2018-Sep-20 01:00S 41°16' E 174°47'0 0.0
2018-Sep-20 00:29S 41°16' E 174°47'1 3.5
2018-Sep-20 00:03S 41°16' E 174°49'115.2
2018-Sep-20 00:00S 41°16' E 174°50'714.5
2018-Sep-19 23:30S 41°23' E 174°49'715.0
2018-Sep-19 23:03S 41°23' E 174°40'114.8
2018-Sep-19 23:00S 41°23' E 174°39'816.4
2018-Sep-19 22:30S 41°19' E 174°30'817.3
2018-Sep-19 22:03S 41°15' E 174°21'116.2
2018-Sep-19 22:00S 41°14' E 174°20'713.3
2018-Sep-19 21:30S 41°15' E 174°11'613.0
2018-Sep-19 21:03S 41°15' E 174°04'115.2
2018-Sep-19 21:00S 41°15' E 174°03'3 5.4
2018-Sep-19 20:30S 41°17' E 174°00'0 0.0
2018-Sep-19 20:03S 41°17' E 174°00'0 0.0
2018-Sep-19 20:00S 41°17' E 174°00'0 0.0
2018-Sep-19 19:30S 41°17' E 174°00'0 0.0
2018-Sep-19 19:03S 41°17' E 174°00'0 0.0
2018-Sep-19 19:00S 41°17' E 174°00'2 3.3
2018-Sep-19 18:31S 41°16' E 174°02'613.7
2018-Sep-19 18:04S 41°14' E 174°09'114.2
2018-Sep-19 18:01S 41°15' E 174°09'713.7
2018-Sep-19 17:31S 41°13' E 174°18'715.9
2018-Sep-19 17:04S 41°16' E 174°26'116.5
2018-Sep-19 17:00S 41°17' E 174°27'917.8
2018-Sep-19 16:31S 41°22' E 174°37'817.7
2018-Sep-19 16:03S 41°22' E 174°48'117.3
2018-Sep-19 16:01S 41°22' E 174°49'612.1
2018-Sep-19 15:30S 41°16' E 174°47'0 0.2
2018-Sep-19 14:40S 41°16' E 174°47'0 0.0
2018-Sep-19 14:22S 41°16' E 174°47'0 0.1
2018-Sep-19 13:24S 41°16' E 174°47'3 9.6
2018-Sep-19 13:03S 41°18' E 174°51'214.8
2018-Sep-19 12:57S 41°19' E 174°51'512.3
2018-Sep-19 12:30S 41°23' E 174°47'715.0
2018-Sep-19 12:03S 41°23' E 174°38'116.5
2018-Sep-19 12:00S 41°22' E 174°37'815.5
2018-Sep-19 11:30S 41°18' E 174°28'715.2
2018-Sep-19 11:03S 41°14' E 174°20'114.7
2018-Sep-19 11:00S 41°14' E 174°20'612.7
2018-Sep-19 10:30S 41°15' E 174°12'612.5
2018-Sep-19 10:03S 41°15' E 174°04'115.0
2018-Sep-19 10:00S 41°15' E 174°03'3 5.8
2018-Sep-19 09:28S 41°17' E 174°00'0 0.0
2018-Sep-19 09:01S 41°17' E 174°00'0 0.0
2018-Sep-19 08:58S 41°17' E 174°00'0 0.0
2018-Sep-19 08:30S 41°17' E 174°00'1 1.5
2018-Sep-19 08:03S 41°16' E 174°01'110.7
2018-Sep-19 08:00S 41°16' E 174°01'612.9
2018-Sep-19 07:30S 41°14' E 174°09'512.1
2018-Sep-19 07:04S 41°13' E 174°17'113.9
2018-Sep-19 07:00S 41°13' E 174°17'714.7
2018-Sep-19 06:31S 41°16' E 174°26'816.7
2018-Sep-19 06:03S 41°20' E 174°35'116.1
2018-Sep-19 06:00S 41°21' E 174°35'816.1
2018-Sep-19 05:30S 41°23' E 174°46'613.8
2018-Sep-19 05:03S 41°17' E 174°51'115.4
2018-Sep-19 05:00S 41°17' E 174°50'2 3.6
2018-Sep-19 04:21S 41°16' E 174°47'0 0.0
2018-Sep-19 03:57S 41°16' E 174°47'0 0.0
2018-Sep-19 03:26S 41°16' E 174°47'0 0.0
2018-Sep-19 02:56S 41°16' E 174°47'0 0.0
2018-Sep-19 02:26S 41°16' E 174°47'0 0.0
2018-Sep-19 01:25S 41°16' E 174°47'0 0.0
2018-Sep-19 01:01S 41°16' E 174°47'0 0.0
2018-Sep-19 00:55S 41°16' E 174°47'0 0.0
2018-Sep-19 00:13S 41°16' E 174°47'0 2.6
2018-Sep-19 00:03S 41°16' E 174°48'111.9
2018-Sep-19 00:00S 41°16' E 174°48'713.7
2018-Sep-18 23:30S 41°23' E 174°50'817.1
2018-Sep-18 23:03S 41°23' E 174°40'117.6
2018-Sep-18 23:00S 41°23' E 174°38'917.1
2018-Sep-18 22:31S 41°18' E 174°29'816.7
2018-Sep-18 22:04S 41°14' E 174°20'117.3
2018-Sep-18 22:01S 41°13' E 174°20'713.8
2018-Sep-18 21:31S 41°15' E 174°11'612.7
2018-Sep-18 21:03S 41°15' E 174°03'114.7
2018-Sep-18 21:01S 41°15' E 174°02'3 4.7
2018-Sep-18 20:28S 41°17' E 174°00'0 0.0
2018-Sep-18 20:01S 41°17' E 174°00'0 0.0
2018-Sep-18 19:58S 41°17' E 174°00'0 0.0
2018-Sep-18 19:28S 41°17' E 174°00'0 0.0
2018-Sep-18 19:01S 41°17' E 174°00'0 0.0
2018-Sep-18 18:58S 41°17' E 174°00'1 1.8
2018-Sep-18 18:31S 41°16' E 174°01'613.9
2018-Sep-18 18:04S 41°14' E 174°08'112.7
2018-Sep-18 18:01S 41°14' E 174°09'611.4
2018-Sep-18 17:30S 41°13' E 174°17'716.1
2018-Sep-18 17:03S 41°16' E 174°26'118.3
2018-Sep-18 17:00S 41°17' E 174°27'1019.3
2018-Sep-18 16:30S 41°22' E 174°38'918.9
2018-Sep-18 16:03S 41°22' E 174°49'318.3
2018-Sep-18 15:52S 41°19' E 174°51'411.5
2018-Sep-18 15:30S 41°16' E 174°47'0 0.1
2018-Sep-18 15:02S 41°16' E 174°47'0 0.0
2018-Sep-18 15:00S 41°16' E 174°47'0 0.0
2018-Sep-18 14:01S 41°16' E 174°47'0 0.0
2018-Sep-18 14:00S 41°16' E 174°47'1 1.1
2018-Sep-18 13:30S 41°16' E 174°48'611.6
2018-Sep-18 13:01S 41°22' E 174°50'714.0
2018-Sep-18 12:30S 41°23' E 174°41'715.3
2018-Sep-18 12:04S 41°20' E 174°33'115.6
2018-Sep-18 12:01S 41°20' E 174°32'816.2
2018-Sep-18 11:31S 41°15' E 174°23'612.7
2018-Sep-18 11:04S 41°14' E 174°16'114.3
2018-Sep-18 11:01S 41°14' E 174°15'612.5
2018-Sep-18 10:31S 41°14' E 174°07'512.2
2018-Sep-18 10:04S 41°17' E 174°01'0 3.3
2018-Sep-18 10:01S 41°17' E 174°00'0 0.0
2018-Sep-18 09:30S 41°17' E 174°00'0 0.0
2018-Sep-18 09:03S 41°17' E 174°00'0 0.0
2018-Sep-18 09:01S 41°17' E 174°00'0 0.0
2018-Sep-18 08:31S 41°17' E 174°00'1 1.3
2018-Sep-18 08:04S 41°16' E 174°01'111.7
2018-Sep-18 08:00S 41°16' E 174°01'612.9
2018-Sep-18 07:30S 41°14' E 174°09'511.9
2018-Sep-18 07:03S 41°14' E 174°16'113.5
2018-Sep-18 07:00S 41°13' E 174°17'815.3
2018-Sep-18 06:30S 41°16' E 174°26'817.2
2018-Sep-18 06:03S 41°21' E 174°35'116.9
2018-Sep-18 06:00S 41°21' E 174°36'816.0
2018-Sep-18 05:30S 41°22' E 174°47'613.2
2018-Sep-18 05:02S 41°17' E 174°50'116.6
2018-Sep-18 05:00S 41°17' E 174°50'2 3.6
2018-Sep-18 04:26S 41°16' E 174°47'0 0.0
2018-Sep-18 04:02S 41°16' E 174°47'0 0.0
2018-Sep-18 03:56S 41°16' E 174°47'0 0.0
2018-Sep-18 03:26S 41°16' E 174°47'0 0.0
2018-Sep-18 02:27S 41°16' E 174°47'0 0.0
2018-Sep-18 02:03S 41°16' E 174°47'0 0.0
2018-Sep-18 01:57S 41°16' E 174°47'0 0.0
2018-Sep-18 01:02S 41°16' E 174°47'0 0.0
2018-Sep-18 00:56S 41°16' E 174°47'0 0.0
2018-Sep-18 00:30S 41°16' E 174°47'3 7.3
2018-Sep-18 00:02S 41°17' E 174°51'217.2
2018-Sep-17 23:56S 41°19' E 174°51'613.8
2018-Sep-17 23:30S 41°23' E 174°46'715.7
2018-Sep-17 23:03S 41°22' E 174°37'116.3
2018-Sep-17 23:00S 41°22' E 174°36'816.7
2018-Sep-17 22:30S 41°17' E 174°26'716.2
2018-Sep-17 22:04S 41°13' E 174°19'116.0
2018-Sep-17 22:00S 41°13' E 174°18'713.5
2018-Sep-17 21:30S 41°14' E 174°09'613.0
2018-Sep-17 21:03S 41°16' E 174°02'114.0
2018-Sep-17 21:00S 41°16' E 174°01'1 1.8
2018-Sep-17 20:29S 41°17' E 174°00'0 0.0
2018-Sep-17 20:02S 41°17' E 174°00'0 0.0
2018-Sep-17 19:59S 41°17' E 174°00'0 0.0
2018-Sep-17 19:29S 41°17' E 174°00'0 0.0
2018-Sep-17 19:01S 41°17' E 174°00'0 0.0
2018-Sep-17 18:58S 41°17' E 174°00'1 2.6
2018-Sep-17 18:30S 41°16' E 174°01'614.1
2018-Sep-17 18:04S 41°13' E 174°09'112.3
2018-Sep-17 18:00S 41°14' E 174°09'611.8
2018-Sep-17 17:31S 41°13' E 174°17'613.8
2018-Sep-17 17:03S 41°16' E 174°25'114.8
2018-Sep-17 17:00S 41°16' E 174°26'815.1
2018-Sep-17 16:30S 41°20' E 174°34'715.0
2018-Sep-17 16:04S 41°23' E 174°42'114.4
2018-Sep-17 16:01S 41°23' E 174°43'713.3
2018-Sep-17 15:29S 41°19' E 174°51'410.2
2018-Sep-17 15:03S 41°16' E 174°47'0 1.5
2018-Sep-17 14:59S 41°16' E 174°47'0 0.0
2018-Sep-17 14:30S 41°16' E 174°47'0 0.0
2018-Sep-17 13:57S 41°16' E 174°47'0 0.0
2018-Sep-17 13:26S 41°16' E 174°47'0 0.0
2018-Sep-17 13:02S 41°16' E 174°47'0 0.0
2018-Sep-17 12:55S 41°16' E 174°47'0 0.0
2018-Sep-17 12:28S 41°16' E 174°47'0 0.0
2018-Sep-17 12:02S 41°16' E 174°47'0 0.0
2018-Sep-17 11:57S 41°16' E 174°47'0 0.0
2018-Sep-17 11:29S 41°16' E 174°47'0 0.0
2018-Sep-17 11:03S 41°16' E 174°47'0 0.0
2018-Sep-17 11:00S 41°16' E 174°47'0 0.0
2018-Sep-17 10:27S 41°16' E 174°47'0 0.0
2018-Sep-17 10:02S 41°16' E 174°47'0 0.0
2018-Sep-17 09:58S 41°16' E 174°47'0 0.0
2018-Sep-17 09:30S 41°16' E 174°47'0 0.3
2018-Sep-17 09:02S 41°16' E 174°47'0 1.3
2018-Sep-17 09:00S 41°16' E 174°47'0 0.2
2018-Sep-17 08:30S 41°16' E 174°47'0 0.0
2018-Sep-17 08:03S 41°16' E 174°47'0 0.0
2018-Sep-17 08:00S 41°16' E 174°47'0 0.0
2018-Sep-17 07:30S 41°16' E 174°47'0 0.0
2018-Sep-17 07:03S 41°16' E 174°47'0 0.0
2018-Sep-17 07:00S 41°16' E 174°47'0 0.0
2018-Sep-17 06:27S 41°16' E 174°47'0 0.0
2018-Sep-17 05:57S 41°16' E 174°47'0 0.0
2018-Sep-17 05:30S 41°16' E 174°47'0 0.0
2018-Sep-17 05:03S 41°16' E 174°47'0 0.0
2018-Sep-17 05:00S 41°16' E 174°47'0 0.0
2018-Sep-17 04:30S 41°16' E 174°47'0 0.0
2018-Sep-17 04:03S 41°16' E 174°47'0 0.0
2018-Sep-17 04:00S 41°16' E 174°47'0 0.0
2018-Sep-17 03:29S 41°16' E 174°47'0 0.0
2018-Sep-17 03:03S 41°16' E 174°47'0 0.0
2018-Sep-17 03:00S 41°16' E 174°47'0 0.0
2018-Sep-17 02:30S 41°16' E 174°47'0 0.0
2018-Sep-17 02:03S 41°16' E 174°47'0 0.0
2018-Sep-17 02:00S 41°16' E 174°47'0 0.0
2018-Sep-17 01:30S 41°16' E 174°47'0 0.0
2018-Sep-17 01:03S 41°16' E 174°47'0 0.0
2018-Sep-17 01:00S 41°16' E 174°47'0 0.0
2018-Sep-17 00:29S 41°16' E 174°47'0 0.0
2018-Sep-17 00:03S 41°16' E 174°47'0 0.0
2018-Sep-17 00:00S 41°16' E 174°47'0 0.0
2018-Sep-16 23:30S 41°16' E 174°47'0 0.0
2018-Sep-16 23:02S 41°16' E 174°47'0 0.0
2018-Sep-16 22:59S 41°16' E 174°47'0 0.0
2018-Sep-16 22:30S 41°16' E 174°47'0 0.0
2018-Sep-16 22:03S 41°16' E 174°47'0 0.0
2018-Sep-16 22:00S 41°16' E 174°47'0 0.0
2018-Sep-16 21:29S 41°16' E 174°47'0 0.0
2018-Sep-16 21:03S 41°16' E 174°47'0 0.0
2018-Sep-16 21:00S 41°16' E 174°47'0 0.0
2018-Sep-16 20:30S 41°16' E 174°47'0 0.0
2018-Sep-16 20:03S 41°16' E 174°47'0 0.0
2018-Sep-16 20:00S 41°16' E 174°47'0 0.0
2018-Sep-16 19:28S 41°16' E 174°47'0 0.0
2018-Sep-16 19:03S 41°16' E 174°47'0 0.0
2018-Sep-16 19:00S 41°16' E 174°47'0 0.0
2018-Sep-16 18:29S 41°16' E 174°47'0 0.0
2018-Sep-16 18:03S 41°16' E 174°47'0 0.0
2018-Sep-16 18:00S 41°16' E 174°47'0 0.0
2018-Sep-16 17:30S 41°16' E 174°47'0 0.4
2018-Sep-16 17:03S 41°16' E 174°47'0 0.0
2018-Sep-16 17:00S 41°16' E 174°47'0 0.0
2018-Sep-16 16:30S 41°16' E 174°47'1 1.3
2018-Sep-16 16:02S 41°16' E 174°48'111.6
2018-Sep-16 15:59S 41°16' E 174°49'5 9.3
2018-Sep-16 15:24S 41°22' E 174°50'411.3
2018-Sep-16 15:03S 41°23' E 174°46'116.8
2018-Sep-16 15:00S 41°23' E 174°45'1616.5
2018-Sep-16 14:03S 41°16' E 174°26'814.2
2018-Sep-16 13:30S 41°14' E 174°16'511.9
2018-Sep-16 13:04S 41°14' E 174°09'112.1
2018-Sep-16 13:00S 41°14' E 174°08'713.5
2018-Sep-16 12:31S 41°17' E 174°01'0 0.4
2018-Sep-16 12:03S 41°17' E 174°00'0 0.0
2018-Sep-16 12:00S 41°17' E 174°00'0 0.0
2018-Sep-16 11:30S 41°17' E 174°00'0 0.7
2018-Sep-16 11:03S 41°17' E 174°01'0 9.5
2018-Sep-16 11:01S 41°16' E 174°01'713.5
2018-Sep-16 10:31S 41°14' E 174°09'612.9
2018-Sep-16 10:04S 41°13' E 174°17'115.8
2018-Sep-16 10:01S 41°13' E 174°18'816.2
2018-Sep-16 09:31S 41°17' E 174°27'716.3
2018-Sep-16 09:03S 41°21' E 174°35'116.3
2018-Sep-16 09:01S 41°21' E 174°36'816.2
2018-Sep-16 08:31S 41°22' E 174°47'612.8
2018-Sep-16 08:01S 41°17' E 174°50'017.9
2018-Sep-16 08:00S 41°16' E 174°49'2 3.0
2018-Sep-16 07:30S 41°16' E 174°47'0 0.0
2018-Sep-16 06:56S 41°16' E 174°47'0 0.0
2018-Sep-16 06:29S 41°16' E 174°47'1 3.2
2018-Sep-16 06:02S 41°16' E 174°49'0 2.4
2018-Sep-16 05:56S 41°16' E 174°49'1 1.1
2018-Sep-16 05:28S 41°16' E 174°49'1 1.1
2018-Sep-16 05:01S 41°16' E 174°48'0 5.5
2018-Sep-16 05:00S 41°16' E 174°48'1 1.3
2018-Sep-16 04:30S 41°16' E 174°47'0 0.0
2018-Sep-16 04:03S 41°16' E 174°47'0 0.0
2018-Sep-16 03:59S 41°16' E 174°47'0 0.0
2018-Sep-16 03:28S 41°16' E 174°47'0 0.0
2018-Sep-16 03:03S 41°16' E 174°47'0 0.0
2018-Sep-16 02:59S 41°16' E 174°47'0 0.0
2018-Sep-16 02:30S 41°16' E 174°47'0 0.0
2018-Sep-16 00:55S 41°16' E 174°47'0 0.0
2018-Sep-16 00:30S 41°16' E 174°47'0 0.0
2018-Sep-16 00:03S 41°16' E 174°47'0 0.0
2018-Sep-15 23:59S 41°16' E 174°47'0 0.0
2018-Sep-15 23:29S 41°16' E 174°47'0 0.0
2018-Sep-15 23:03S 41°16' E 174°47'0 0.0
2018-Sep-15 23:00S 41°16' E 174°47'0 0.0
2018-Sep-15 22:25S 41°16' E 174°47'0 0.0
2018-Sep-15 22:01S 41°16' E 174°47'0 0.0
2018-Sep-15 21:57S 41°16' E 174°47'0 0.0
2018-Sep-15 21:27S 41°16' E 174°47'0 0.0
2018-Sep-15 21:02S 41°16' E 174°47'0 0.0
2018-Sep-15 21:00S 41°16' E 174°47'0 0.0
2018-Sep-15 20:28S 41°16' E 174°47'0 0.0
2018-Sep-15 19:58S 41°16' E 174°47'0 0.0
2018-Sep-15 19:30S 41°16' E 174°47'0 0.0
2018-Sep-15 19:00S 41°16' E 174°47'0 0.0
2018-Sep-15 18:30S 41°16' E 174°47'0 0.0
2018-Sep-15 17:58S 41°16' E 174°47'0 0.0
2018-Sep-15 17:29S 41°16' E 174°47'0 0.0
2018-Sep-15 16:59S 41°16' E 174°47'0 0.0
2018-Sep-15 16:29S 41°16' E 174°47'0 0.0
2018-Sep-15 16:01S 41°16' E 174°47'0 0.0
2018-Sep-15 15:33S 41°16' E 174°47'0 0.2
2018-Sep-15 15:16S 41°16' E 174°47'0 0.1
2018-Sep-15 13:52S 41°16' E 174°47'3 6.3
2018-Sep-15 13:26S 41°17' E 174°51'615.4
2018-Sep-15 13:03S 41°22' E 174°50'116.0
2018-Sep-15 13:00S 41°23' E 174°50'815.8
2018-Sep-15 12:30S 41°23' E 174°39'715.6
2018-Sep-15 12:03S 41°19' E 174°31'115.6
2018-Sep-15 12:00S 41°19' E 174°30'816.3
2018-Sep-15 11:30S 41°14' E 174°21'612.3
2018-Sep-15 11:03S 41°14' E 174°14'113.6
2018-Sep-15 11:00S 41°14' E 174°13'612.2
2018-Sep-15 10:30S 41°14' E 174°05'4 9.9
2018-Sep-15 10:03S 41°17' E 174°00'0 0.0
2018-Sep-15 10:00S 41°17' E 174°00'0 0.0
2018-Sep-15 09:31S 41°17' E 174°00'0 0.0
2018-Sep-15 09:03S 41°17' E 174°00'0 0.0
2018-Sep-15 09:01S 41°17' E 174°00'0 0.0
2018-Sep-15 08:30S 41°17' E 174°00'0 0.4
2018-Sep-15 08:03S 41°17' E 174°01'0 3.7
2018-Sep-15 08:00S 41°17' E 174°00'713.5
2018-Sep-15 07:30S 41°14' E 174°08'612.9
2018-Sep-15 07:04S 41°14' E 174°16'115.2
2018-Sep-15 07:00S 41°13' E 174°17'815.1
2018-Sep-15 06:31S 41°16' E 174°26'715.7
2018-Sep-15 06:04S 41°20' E 174°34'115.0
2018-Sep-15 06:01S 41°20' E 174°35'815.2
2018-Sep-15 05:31S 41°23' E 174°44'712.8
2018-Sep-15 04:57S 41°17' E 174°50'3 5.9
2018-Sep-15 04:30S 41°16' E 174°47'0 0.0
2018-Sep-15 02:52S 41°16' E 174°47'0 0.0
2018-Sep-15 02:27S 41°16' E 174°47'0 0.0
2018-Sep-15 02:03S 41°16' E 174°47'0 0.0
2018-Sep-15 01:51S 41°16' E 174°47'0 0.0
2018-Sep-15 01:03S 41°16' E 174°47'0 0.0
2018-Sep-15 00:32S 41°16' E 174°47'0 0.0
2018-Sep-15 00:29S 41°16' E 174°47'4 8.0
2018-Sep-14 23:56S 41°19' E 174°51'613.8
2018-Sep-14 23:30S 41°23' E 174°46'715.7
2018-Sep-14 23:03S 41°22' E 174°37'115.9
2018-Sep-14 23:00S 41°22' E 174°36'917.1
2018-Sep-14 22:30S 41°17' E 174°26'716.3
2018-Sep-14 22:03S 41°13' E 174°18'115.7
2018-Sep-14 22:00S 41°13' E 174°17'  

Dump ship's entire track history